createdAt,value
2019-03-18T00:01:38.981Z,48.03
2019-03-18T00:04:10.361Z,49.43
2019-03-18T00:06:40.992Z,48.73
2019-03-18T00:09:11.514Z,48.83
2019-03-18T00:11:41.939Z,48.54
2019-03-18T00:14:12.619Z,48.42
2019-03-18T00:16:42.950Z,48.65
2019-03-18T00:19:13.496Z,48.58
2019-03-18T00:21:44.171Z,50.39
2019-03-18T00:24:14.516Z,47.22
2019-03-18T00:26:44.804Z,49.56
2019-03-18T00:29:15.204Z,49.99
2019-03-18T00:31:45.531Z,48.25
2019-03-18T00:34:15.950Z,48.09
2019-03-18T00:36:46.240Z,49.22
2019-03-18T00:39:16.569Z,49.51
2019-03-18T00:41:46.974Z,50.85
2019-03-18T00:44:17.475Z,50.43
2019-03-18T00:46:47.884Z,50.15
2019-03-18T00:49:18.603Z,50.56
2019-03-18T00:51:49.147Z,52.78
2019-03-18T00:54:19.488Z,53.35
2019-03-18T00:56:49.978Z,52.59
2019-03-18T00:59:20.951Z,53.20
2019-03-18T01:01:51.310Z,53.93
2019-03-18T01:04:21.660Z,53.45
2019-03-18T01:06:51.946Z,54.11
2019-03-18T01:09:22.885Z,53.71
2019-03-18T01:11:53.408Z,53.59
2019-03-18T01:14:23.839Z,53.03
2019-03-18T01:16:54.490Z,52.53
2019-03-18T01:19:25.306Z,54.02
2019-03-18T01:21:55.675Z,54.04
2019-03-18T01:24:26.397Z,54.71
2019-03-18T01:26:56.974Z,54.69
2019-03-18T01:29:27.257Z,55.02
2019-03-18T01:31:57.743Z,55.19
2019-03-18T01:34:28.305Z,54.45
2019-03-18T01:36:58.583Z,54.37
2019-03-18T01:39:28.860Z,53.24
2019-03-18T01:41:59.893Z,53.38
2019-03-18T01:44:30.187Z,53.14
2019-03-18T01:47:00.485Z,52.85
2019-03-18T01:49:30.874Z,53.23
2019-03-18T01:52:01.342Z,52.85
2019-03-18T01:54:31.675Z,53.74
2019-03-18T01:57:02.299Z,54.86
2019-03-18T01:59:32.988Z,54.89
2019-03-18T02:02:04.397Z,54.25
2019-03-18T02:04:35.079Z,53.95
2019-03-18T02:07:05.532Z,53.45
2019-03-18T02:09:35.903Z,53.06
2019-03-18T02:12:06.459Z,54.50
2019-03-18T02:14:36.742Z,54.10
2019-03-18T02:17:07.455Z,53.98
2019-03-18T02:19:38.147Z,54.90
2019-03-18T02:22:08.504Z,54.43
2019-03-18T02:24:39.114Z,54.79
2019-03-18T02:27:09.639Z,56.63
2019-03-18T02:29:39.965Z,57.18
2019-03-18T02:32:10.501Z,56.37
2019-03-18T02:34:41.221Z,56.01
2019-03-18T02:37:11.497Z,57.65
2019-03-18T02:39:42.011Z,57.88
2019-03-18T02:42:12.632Z,59.56
2019-03-18T02:44:43.164Z,59.51
2019-03-18T02:47:13.820Z,59.21
2019-03-18T02:49:44.105Z,59.53
2019-03-18T02:52:14.675Z,59.09
2019-03-18T02:54:45.364Z,59.57
2019-03-18T02:57:15.696Z,58.75
2019-03-18T02:59:46.076Z,58.19
2019-03-18T03:02:16.885Z,59.45
2019-03-18T03:04:47.168Z,59.93
2019-03-18T03:07:17.592Z,59.51
2019-03-18T03:09:48.227Z,59.01
2019-03-18T03:12:18.730Z,59.22
2019-03-18T03:14:49.479Z,61.02
2019-03-18T03:17:21.903Z,61.44
2019-03-18T03:19:52.017Z,61.95
2019-03-18T03:22:22.578Z,61.90
2019-03-18T03:24:52.876Z,61.96
2019-03-18T03:27:23.196Z,62.26
2019-03-18T03:29:53.602Z,62.25
2019-03-18T03:32:24.317Z,62.03
2019-03-18T03:34:54.586Z,62.57
2019-03-18T03:37:25.142Z,62.53
2019-03-18T03:39:55.503Z,62.67
2019-03-18T03:42:25.802Z,62.11
2019-03-18T03:44:56.543Z,61.41
2019-03-18T03:47:27.326Z,61.78
2019-03-18T03:49:57.605Z,61.96
2019-03-18T03:52:28.212Z,61.54
2019-03-18T03:54:58.982Z,61.48
2019-03-18T03:57:29.307Z,60.49
2019-03-18T03:59:59.730Z,58.99
2019-03-18T04:02:30.750Z,58.92
2019-03-18T04:05:01.052Z,59.30
2019-03-18T04:07:31.375Z,59.32
2019-03-18T04:10:02.006Z,59.48
2019-03-18T04:12:32.675Z,59.65
2019-03-18T04:15:03.352Z,59.61
2019-03-18T04:17:35.000Z,59.46
2019-03-18T04:20:05.587Z,60.18
2019-03-18T04:22:36.300Z,59.82
2019-03-18T04:25:06.868Z,60.64
2019-03-18T04:27:37.243Z,61.29
2019-03-18T04:30:08.540Z,62.44
2019-03-18T04:32:39.195Z,62.85
2019-03-18T04:35:09.600Z,61.79
2019-03-18T04:37:40.540Z,60.85
2019-03-18T04:40:11.811Z,60.80
2019-03-18T04:42:42.191Z,61.46
2019-03-18T04:45:12.781Z,61.82
2019-03-18T04:47:43.120Z,60.90
2019-03-18T04:50:14.149Z,61.15
2019-03-18T04:52:45.410Z,60.53
2019-03-18T04:55:15.777Z,60.01
2019-03-18T04:57:46.499Z,59.48
2019-03-18T05:00:17.032Z,59.74
2019-03-18T05:02:47.365Z,59.59
2019-03-18T05:05:18.156Z,59.07
2019-03-18T05:07:48.801Z,59.38
2019-03-18T05:10:19.083Z,59.47
2019-03-18T05:12:49.660Z,59.74
2019-03-18T05:15:20.267Z,59.30
2019-03-18T05:17:50.613Z,59.87
2019-03-18T05:20:21.068Z,59.66
2019-03-18T05:22:51.619Z,59.95
2019-03-18T05:25:22.279Z,60.29
2019-03-18T05:27:52.852Z,59.49
2019-03-18T05:30:23.131Z,58.61
2019-03-18T05:32:53.815Z,58.74
2019-03-18T05:35:24.506Z,58.23
2019-03-18T05:37:54.872Z,57.67
2019-03-18T05:40:25.217Z,57.59
2019-03-18T05:42:55.812Z,56.84
2019-03-18T05:45:26.159Z,57.09
2019-03-18T05:47:56.728Z,56.25
2019-03-18T05:50:27.257Z,56.56
2019-03-18T05:52:57.833Z,55.27
2019-03-18T05:55:28.563Z,55.07
2019-03-18T05:57:59.003Z,55.68
2019-03-18T06:00:29.517Z,55.69
2019-03-18T06:03:00.226Z,55.52
2019-03-18T06:05:30.672Z,54.56
2019-03-18T06:08:01.213Z,54.50
2019-03-18T06:10:31.831Z,53.98
2019-03-18T06:13:02.160Z,53.66
2019-03-18T06:15:32.442Z,53.02
2019-03-18T06:18:02.898Z,51.81
2019-03-18T06:20:33.392Z,51.82
2019-03-18T06:23:04.170Z,51.42
2019-03-18T06:25:34.536Z,51.76
2019-03-18T06:28:04.867Z,51.23
2019-03-18T06:30:35.511Z,51.75
2019-03-18T06:33:05.857Z,51.17
2019-03-18T06:35:36.203Z,50.49
2019-03-18T06:38:07.151Z,49.36
2019-03-18T06:40:37.645Z,48.65
2019-03-18T06:43:08.019Z,49.64
2019-03-18T06:45:38.632Z,49.28
2019-03-18T06:48:09.316Z,48.60
2019-03-18T06:50:39.607Z,48.53
2019-03-18T06:53:10.353Z,48.99
2019-03-18T06:55:40.643Z,47.58
2019-03-18T06:58:11.156Z,47.11
2019-03-18T07:00:41.673Z,46.09
2019-03-18T07:03:12.008Z,46.00
2019-03-18T07:05:42.488Z,44.45
2019-03-18T07:08:13.205Z,44.60
2019-03-18T07:10:43.600Z,44.72
2019-03-18T07:13:14.421Z,44.53
2019-03-18T07:15:45.187Z,43.32
2019-03-18T07:18:18.635Z,42.96
2019-03-18T07:20:47.566Z,43.04
2019-03-18T07:23:18.248Z,42.49
2019-03-18T07:25:48.547Z,42.19
2019-03-18T07:28:19.371Z,41.14
2019-03-18T07:30:49.829Z,41.31
2019-03-18T07:33:21.677Z,40.85
2019-03-18T07:35:52.400Z,40.96
2019-03-18T07:38:22.728Z,40.69
2019-03-18T07:40:53.366Z,40.62
2019-03-18T07:43:23.934Z,39.88
2019-03-18T07:45:54.233Z,39.46
2019-03-18T07:48:30.767Z,39.19
2019-03-18T07:50:57.329Z,38.66
2019-03-18T07:53:27.812Z,38.24
2019-03-18T07:55:58.098Z,37.48
2019-03-18T07:58:28.872Z,36.89
2019-03-18T08:00:59.542Z,36.34
2019-03-18T08:03:30.238Z,35.95
2019-03-18T08:06:01.852Z,35.36
2019-03-18T08:08:32.754Z,34.74
2019-03-18T08:11:03.040Z,34.22
2019-03-18T08:13:33.926Z,33.77
2019-03-18T08:16:04.466Z,33.58
2019-03-18T08:18:43.297Z,32.87
2019-03-18T08:21:07.168Z,33.00
2019-03-18T08:23:37.856Z,32.39
2019-03-18T08:26:09.238Z,31.95
2019-03-18T08:28:39.587Z,31.75
2019-03-18T08:31:10.055Z,31.58
2019-03-18T08:33:40.778Z,31.96
2019-03-18T08:36:11.475Z,31.69
2019-03-18T08:38:41.879Z,31.31
2019-03-18T08:41:12.393Z,31.17
2019-03-18T08:43:43.107Z,29.76
2019-03-18T08:46:13.411Z,29.84
2019-03-18T08:48:55.322Z,29.48
2019-03-18T08:51:16.182Z,29.65
2019-03-18T08:53:47.103Z,29.17
2019-03-18T08:56:17.698Z,29.08
2019-03-18T08:58:48.574Z,29.25
2019-03-18T09:01:18.942Z,28.63
2019-03-18T09:03:49.851Z,28.30
2019-03-18T09:06:21.229Z,27.97
2019-03-18T09:08:51.769Z,27.97
2019-03-18T09:11:22.579Z,28.58
2019-03-18T09:13:53.126Z,28.63
2019-03-18T09:16:23.587Z,28.63
2019-03-18T09:18:54.202Z,27.50
2019-03-18T09:21:24.677Z,27.40
2019-03-18T09:23:55.236Z,27.74
2019-03-18T09:26:25.861Z,27.35
2019-03-18T09:28:56.433Z,26.45
2019-03-18T09:31:26.853Z,27.33
2019-03-18T09:33:57.294Z,26.82
2019-03-18T09:36:27.750Z,26.46
2019-03-18T09:38:58.305Z,26.51
2019-03-18T09:41:28.815Z,26.46
2019-03-18T09:44:01.138Z,26.17
2019-03-18T09:46:31.904Z,25.89
2019-03-18T09:49:02.669Z,25.49
2019-03-18T09:51:33.188Z,23.62
2019-03-18T09:54:03.941Z,22.79
2019-03-18T09:56:34.553Z,23.06
2019-03-18T09:59:04.964Z,22.59
2019-03-18T10:01:35.372Z,22.69
2019-03-18T10:04:05.866Z,21.67
2019-03-18T10:06:36.201Z,21.34
2019-03-18T10:09:08.662Z,20.63
2019-03-18T10:11:39.116Z,20.37
2019-03-18T10:14:09.832Z,20.80
2019-03-18T10:16:40.588Z,20.74
2019-03-18T10:19:10.885Z,20.43
2019-03-18T10:21:41.461Z,19.61
2019-03-18T10:24:12.148Z,19.55
2019-03-18T10:26:42.881Z,19.12
2019-03-18T10:29:13.189Z,17.84
2019-03-18T10:31:43.935Z,18.34
2019-03-18T10:34:14.262Z,17.69
2019-03-18T10:36:44.976Z,17.74
2019-03-18T10:39:15.371Z,17.96
2019-03-18T10:41:45.804Z,16.96
2019-03-18T10:44:16.179Z,16.43
2019-03-18T10:46:46.589Z,17.07
2019-03-18T10:49:17.007Z,15.83
2019-03-18T10:51:48.389Z,15.79
2019-03-18T10:54:30.467Z,16.47
2019-03-18T10:56:50.945Z,16.36
2019-03-18T10:59:21.768Z,16.87
2019-03-18T11:01:52.537Z,16.62
2019-03-18T11:04:22.824Z,16.08
2019-03-18T11:06:53.543Z,15.86
2019-03-18T11:09:24.234Z,15.69
2019-03-18T11:11:54.574Z,15.60
2019-03-18T11:14:25.114Z,15.34
2019-03-18T11:16:55.417Z,15.13
2019-03-18T11:19:26.079Z,15.01
2019-03-18T11:21:56.553Z,14.66
2019-03-18T11:24:27.036Z,15.59
2019-03-18T11:26:57.769Z,15.81
2019-03-18T11:29:28.374Z,15.49
2019-03-18T11:31:58.697Z,15.44
2019-03-18T11:34:29.452Z,15.17
2019-03-18T11:37:00.272Z,14.79
2019-03-18T11:39:30.629Z,14.03
2019-03-18T11:42:01.266Z,14.27
2019-03-18T11:44:31.844Z,14.30
2019-03-18T11:47:02.283Z,13.89
2019-03-18T11:49:39.630Z,13.68
2019-03-18T11:52:05.482Z,13.59
2019-03-18T11:54:36.253Z,13.87
2019-03-18T11:57:07.244Z,13.67
2019-03-18T11:59:37.535Z,13.20
2019-03-18T12:02:08.291Z,13.33
2019-03-18T12:04:38.999Z,13.15
2019-03-18T12:07:09.379Z,12.95
2019-03-18T12:09:39.695Z,12.54
2019-03-18T12:12:13.224Z,12.92
2019-03-18T12:14:42.683Z,12.73
2019-03-18T12:17:12.988Z,12.78
2019-03-18T12:19:43.375Z,12.63
2019-03-18T12:22:14.092Z,12.70
2019-03-18T12:24:44.385Z,12.64
2019-03-18T12:27:14.971Z,12.81
2019-03-18T12:29:45.611Z,12.57
2019-03-18T12:32:15.913Z,12.11
2019-03-18T12:34:46.598Z,12.08
2019-03-18T12:37:17.295Z,11.18
2019-03-18T12:39:47.794Z,11.50
2019-03-18T12:42:19.442Z,12.49
2019-03-18T12:44:50.162Z,12.71
2019-03-18T12:47:20.494Z,12.78
2019-03-18T12:49:50.947Z,12.20
2019-03-18T12:52:21.294Z,11.97
2019-03-18T12:54:52.127Z,11.50
2019-03-18T12:57:22.770Z,11.87
2019-03-18T12:59:53.262Z,11.07
2019-03-18T13:02:23.717Z,10.17
2019-03-18T13:04:54.400Z,10.15
2019-03-18T13:07:24.706Z,10.74
2019-03-18T13:09:55.034Z,11.58
2019-03-18T13:12:25.649Z,10.86
2019-03-18T13:14:56.239Z,10.69
2019-03-18T13:17:26.660Z,10.54
2019-03-18T13:19:57.228Z,10.73
2019-03-18T13:22:27.596Z,10.42
2019-03-18T13:24:58.377Z,11.19
2019-03-18T13:27:28.664Z,11.73
2019-03-18T13:29:59.038Z,11.99
2019-03-18T13:32:29.726Z,13.19
2019-03-18T13:35:00.032Z,13.60
2019-03-18T13:37:30.610Z,13.28
2019-03-18T13:40:01.265Z,13.16
2019-03-18T13:42:31.774Z,13.44
2019-03-18T13:45:02.185Z,13.86
2019-03-18T13:47:33.073Z,14.02
2019-03-18T13:50:03.785Z,13.94
2019-03-18T13:52:34.422Z,13.73
2019-03-18T13:55:04.781Z,13.22
2019-03-18T13:57:35.074Z,13.45
2019-03-18T14:00:07.275Z,13.13
2019-03-18T14:02:37.830Z,13.09
2019-03-18T14:05:08.790Z,13.19
2019-03-18T14:07:39.653Z,13.32
2019-03-18T14:10:11.921Z,13.38
2019-03-18T14:12:42.470Z,13.85
2019-03-18T14:15:14.627Z,14.35
2019-03-18T14:17:46.462Z,14.02
2019-03-18T14:20:17.834Z,13.76
2019-03-18T14:22:48.419Z,13.59
2019-03-18T14:25:18.727Z,13.47
2019-03-18T14:27:49.577Z,13.63
2019-03-18T14:30:20.368Z,14.14
2019-03-18T14:32:50.772Z,14.26
2019-03-18T14:35:22.063Z,14.13
2019-03-18T14:37:53.132Z,13.97
2019-03-18T14:40:24.762Z,13.66
2019-03-18T14:42:55.309Z,13.82
2019-03-18T14:45:26.217Z,13.69
2019-03-18T14:47:56.632Z,13.79
2019-03-18T14:50:26.927Z,13.82
2019-03-18T14:52:57.783Z,13.54
2019-03-18T14:55:28.088Z,14.00
2019-03-18T14:57:59.056Z,13.84
2019-03-18T15:00:29.355Z,13.93
2019-03-18T15:02:59.831Z,13.75
2019-03-18T15:05:30.470Z,13.48
2019-03-18T15:08:00.806Z,13.35
2019-03-18T15:10:31.096Z,13.35
2019-03-18T15:13:01.784Z,13.87
2019-03-18T15:15:32.103Z,13.87
2019-03-18T15:18:02.426Z,14.49
2019-03-18T15:20:32.812Z,14.49
2019-03-18T15:23:03.322Z,14.86
2019-03-18T15:25:33.867Z,14.66
2019-03-18T15:28:04.862Z,14.92
2019-03-18T15:30:35.164Z,14.73
2019-03-18T15:33:05.996Z,14.74
2019-03-18T15:35:36.269Z,15.24
2019-03-18T15:38:06.604Z,15.32
2019-03-18T15:40:37.316Z,15.31
2019-03-18T15:43:07.862Z,15.53
2019-03-18T15:45:38.268Z,15.79
2019-03-18T15:48:09.045Z,16.62
2019-03-18T15:50:46.462Z,16.78
2019-03-18T15:53:20.786Z,17.16
2019-03-18T15:55:51.626Z,17.31
2019-03-18T15:58:22.276Z,17.46
2019-03-18T16:00:52.578Z,17.60
2019-03-18T16:03:23.060Z,17.49
2019-03-18T16:05:53.364Z,17.78
2019-03-18T16:08:24.278Z,17.69
2019-03-18T16:10:55.074Z,18.12
2019-03-18T16:13:25.366Z,18.66
2019-03-18T16:15:55.737Z,19.18
2019-03-18T16:18:26.118Z,19.52
2019-03-18T16:20:56.483Z,20.26
2019-03-18T16:23:27.043Z,20.64
2019-03-18T16:25:57.729Z,21.10
2019-03-18T16:28:28.078Z,21.40
2019-03-18T16:30:58.786Z,21.88
2019-03-18T16:33:29.525Z,22.08
2019-03-18T16:35:59.831Z,22.29
2019-03-18T16:38:30.178Z,22.50
2019-03-18T16:41:00.660Z,22.74
2019-03-18T16:43:31.177Z,22.92
2019-03-18T16:46:01.471Z,23.18
2019-03-18T16:48:32.209Z,23.46
2019-03-18T16:51:02.740Z,23.51
2019-03-18T16:53:33.166Z,23.62
2019-03-18T16:56:03.933Z,23.85
2019-03-18T16:58:34.448Z,23.98
2019-03-18T17:01:04.878Z,24.12
2019-03-18T17:03:35.399Z,24.03
2019-03-18T17:06:05.787Z,23.99
2019-03-18T17:08:36.446Z,24.01
2019-03-18T17:11:07.124Z,24.06
2019-03-18T17:13:37.495Z,24.28
2019-03-18T17:16:08.191Z,24.24
2019-03-18T17:18:38.578Z,24.42
2019-03-18T17:21:08.903Z,24.51
2019-03-18T17:23:39.429Z,24.52
2019-03-18T17:26:10.101Z,24.81
2019-03-18T17:28:40.448Z,24.46
2019-03-18T17:31:11.008Z,24.42
2019-03-18T17:33:41.650Z,24.46
2019-03-18T17:36:11.939Z,24.57
2019-03-18T17:38:42.691Z,24.62
2019-03-18T17:41:12.971Z,24.86
2019-03-18T17:43:43.645Z,25.03
2019-03-18T17:46:14.012Z,24.95
2019-03-18T17:48:44.320Z,25.20
2019-03-18T17:51:14.610Z,25.20
2019-03-18T17:53:45.324Z,25.31
2019-03-18T17:56:15.734Z,25.54
2019-03-18T17:58:46.095Z,25.49
2019-03-18T18:01:16.658Z,25.44
2019-03-18T18:03:47.088Z,25.76
2019-03-18T18:06:17.480Z,25.83
2019-03-18T18:08:48.982Z,26.03
2019-03-18T18:11:19.478Z,26.24
2019-03-18T18:13:50.188Z,25.87
2019-03-18T18:16:20.491Z,26.32
2019-03-18T18:18:50.936Z,26.34
2019-03-18T18:21:21.620Z,26.04
2019-03-18T18:23:52.096Z,26.08
2019-03-18T18:26:22.380Z,26.09
2019-03-18T18:28:53.204Z,26.28
2019-03-18T18:31:23.945Z,26.40
2019-03-18T18:33:54.273Z,27.14
2019-03-18T18:36:25.432Z,27.25
2019-03-18T18:38:56.164Z,27.77
2019-03-18T18:41:26.569Z,28.00
2019-03-18T18:43:57.102Z,27.74
2019-03-18T18:46:27.411Z,28.28
2019-03-18T18:48:58.103Z,28.70
2019-03-18T18:51:28.802Z,29.09
2019-03-18T18:53:59.129Z,28.17
2019-03-18T18:56:29.866Z,28.17
2019-03-18T18:59:00.343Z,29.20
2019-03-18T19:01:30.647Z,29.31
2019-03-18T19:04:01.103Z,30.57
2019-03-18T19:06:32.602Z,31.77
2019-03-18T19:09:04.118Z,31.38
2019-03-18T19:11:34.487Z,29.98
2019-03-18T19:14:05.330Z,31.38
2019-03-18T19:16:36.695Z,31.14
2019-03-18T19:19:07.160Z,31.13
2019-03-18T19:21:37.503Z,31.13
2019-03-18T19:24:10.709Z,31.14
2019-03-18T19:26:40.528Z,31.90
2019-03-18T19:29:11.235Z,32.09
2019-03-18T19:31:41.624Z,31.95
2019-03-18T19:34:12.454Z,32.08
2019-03-18T19:36:42.818Z,31.96
2019-03-18T19:39:13.172Z,31.82
2019-03-18T19:41:43.815Z,32.21
2019-03-18T19:44:14.254Z,32.45
2019-03-18T19:46:44.972Z,33.11
2019-03-18T19:49:15.323Z,33.15
2019-03-18T19:51:45.640Z,34.06
2019-03-18T19:54:16.294Z,35.25
2019-03-18T19:56:46.631Z,35.79
2019-03-18T19:59:16.967Z,36.06
2019-03-18T20:01:47.433Z,36.09
2019-03-18T20:04:18.099Z,36.03
2019-03-18T20:06:48.391Z,35.95
2019-03-18T20:09:20.290Z,36.68
2019-03-18T20:11:50.990Z,36.79
2019-03-18T20:14:21.319Z,36.80
2019-03-18T20:16:51.759Z,37.51
2019-03-18T20:19:22.042Z,37.13
2019-03-18T20:21:52.640Z,36.16
2019-03-18T20:24:23.185Z,36.03
2019-03-18T20:26:53.653Z,35.99
2019-03-18T20:29:24.387Z,36.11
2019-03-18T20:31:55.160Z,36.61
2019-03-18T20:34:25.526Z,36.67
2019-03-18T20:36:56.138Z,37.22
2019-03-18T20:39:26.722Z,37.96
2019-03-18T20:41:57.188Z,38.23
2019-03-18T20:44:27.704Z,37.81
2019-03-18T20:46:58.154Z,38.30
2019-03-18T20:49:28.516Z,38.34
2019-03-18T20:51:58.952Z,38.92
2019-03-18T20:54:29.710Z,39.97
2019-03-18T20:57:00.181Z,40.35
2019-03-18T20:59:30.548Z,40.59
2019-03-18T21:02:02.257Z,40.13
2019-03-18T21:04:32.931Z,40.13
2019-03-18T21:07:03.309Z,40.09
2019-03-18T21:09:33.996Z,40.25
2019-03-18T21:12:04.764Z,40.49
2019-03-18T21:14:35.137Z,40.08
2019-03-18T21:17:05.514Z,40.88
2019-03-18T21:19:36.051Z,40.76
2019-03-18T21:22:06.404Z,41.39
2019-03-18T21:24:37.051Z,40.63
2019-03-18T21:27:07.448Z,40.04
2019-03-18T21:29:38.339Z,40.47
2019-03-18T21:32:09.063Z,40.73
2019-03-18T21:34:39.680Z,40.60
2019-03-18T21:37:10.231Z,42.28
2019-03-18T21:39:40.960Z,42.06
2019-03-18T21:42:11.340Z,42.91
2019-03-18T21:44:41.877Z,43.08
2019-03-18T21:47:12.246Z,44.61
2019-03-18T21:49:42.553Z,43.06
2019-03-18T21:52:13.102Z,43.51
2019-03-18T21:54:43.634Z,44.46
2019-03-18T21:57:14.301Z,45.92
2019-03-18T21:59:45.007Z,46.06
2019-03-18T22:02:15.303Z,45.91
2019-03-18T22:04:45.848Z,45.49
2019-03-18T22:07:16.487Z,45.28
2019-03-18T22:09:47.002Z,45.01
2019-03-18T22:12:17.307Z,45.57
2019-03-18T22:14:48.016Z,45.58
2019-03-18T22:17:18.299Z,45.33
2019-03-18T22:19:48.625Z,45.02
2019-03-18T22:22:19.257Z,45.00
2019-03-18T22:24:50.182Z,44.92
2019-03-18T22:27:21.032Z,45.06
2019-03-18T22:29:51.397Z,44.91
2019-03-18T22:32:21.689Z,44.77
2019-03-18T22:34:52.465Z,44.53
2019-03-18T22:37:22.828Z,44.38
2019-03-18T22:39:53.171Z,44.71
2019-03-18T22:42:23.833Z,44.65
2019-03-18T22:44:54.182Z,43.80
2019-03-18T22:47:24.463Z,43.71
2019-03-18T22:49:54.877Z,43.38
2019-03-18T22:52:25.501Z,43.45
2019-03-18T22:54:56.374Z,43.86
2019-03-18T22:57:27.091Z,43.36
2019-03-18T22:59:58.544Z,44.11
2019-03-18T23:02:29.275Z,43.03
2019-03-18T23:04:59.947Z,43.53
2019-03-18T23:07:30.242Z,44.07
2019-03-18T23:10:00.912Z,44.31
2019-03-18T23:12:31.698Z,44.53
2019-03-18T23:15:03.702Z,45.10
2019-03-18T23:17:34.101Z,44.98
2019-03-18T23:20:04.969Z,45.50
2019-03-18T23:22:35.341Z,46.03
2019-03-18T23:25:07.883Z,45.52
2019-03-18T23:27:39.801Z,46.34
2019-03-18T23:30:10.425Z,46.33
2019-03-18T23:32:41.077Z,46.16
2019-03-18T23:35:11.473Z,45.52
2019-03-18T23:37:42.169Z,45.05
2019-03-18T23:40:12.967Z,44.63
2019-03-18T23:42:43.365Z,44.80
2019-03-18T23:45:14.133Z,45.28
2019-03-18T23:47:44.546Z,44.62
2019-03-18T23:50:14.857Z,43.75
2019-03-18T23:52:45.472Z,43.10
2019-03-18T23:55:19.286Z,43.22
2019-03-18T23:57:48.188Z,43.57
